createdAt,value
2022-10-12T00:02:12.648Z,0.021
2022-10-12T00:07:27.669Z,0.021
2022-10-12T00:12:38.769Z,0.013
2022-10-12T00:17:50.537Z,0.02
2022-10-12T00:23:02.595Z,0.01
2022-10-12T00:28:14.453Z,0.003
2022-10-12T00:33:26.558Z,0.02
2022-10-12T00:38:38.355Z,0.005
2022-10-12T00:43:54.064Z,0.012
2022-10-12T00:49:12.831Z,0.018
2022-10-12T00:54:24.537Z,0.022
2022-10-12T00:59:36.308Z,0.017
2022-10-12T01:04:48.190Z,0.006
2022-10-12T01:10:00.098Z,0.022
2022-10-12T01:15:11.911Z,0.005
2022-10-12T01:20:23.669Z,0.011
2022-10-12T01:25:35.333Z,0.001
2022-10-12T01:30:47.488Z,0.021
2022-10-12T01:35:59.719Z,-0.018
2022-10-12T01:41:11.572Z,0.023
2022-10-12T01:46:23.337Z,0.004
2022-10-12T01:51:34.964Z,0.02
2022-10-12T01:56:46.668Z,0.012
2022-10-12T02:01:58.490Z,0.013
2022-10-12T02:07:10.185Z,0
2022-10-12T02:12:21.902Z,0.01
2022-10-12T02:17:34.118Z,0.021
2022-10-12T02:22:46.447Z,0.017
2022-10-12T02:27:58.118Z,-0.004
2022-10-12T02:33:09.977Z,0.039
2022-10-12T02:38:21.742Z,0.012
2022-10-12T02:43:33.418Z,0.006
2022-10-12T02:48:45.202Z,0.002
2022-10-12T02:53:56.844Z,0.003
2022-10-12T02:59:08.782Z,0.016
2022-10-12T03:04:20.650Z,0.021
2022-10-12T03:09:32.206Z,0.023
2022-10-12T03:14:44.155Z,0.017
2022-10-12T03:19:55.998Z,0.015
2022-10-12T03:25:07.839Z,0.009
2022-10-12T03:30:19.668Z,0.013
2022-10-12T03:35:31.514Z,0.007
2022-10-12T03:40:43.129Z,0.013
2022-10-12T03:45:54.763Z,0.009
2022-10-12T03:51:06.556Z,0.013
2022-10-12T03:56:18.075Z,-0.009
2022-10-12T04:01:29.872Z,0.041
2022-10-12T04:06:41.924Z,0.033
2022-10-12T04:11:53.887Z,0.031
2022-10-12T04:17:05.693Z,0.017
2022-10-12T04:22:17.766Z,-0.004
2022-10-12T04:27:29.580Z,0.026
2022-10-12T04:32:41.442Z,0.028
2022-10-12T04:37:53.297Z,0.035
2022-10-12T04:43:05.240Z,0.024
2022-10-12T04:48:16.933Z,0.027
2022-10-12T04:53:28.768Z,-0.02
2022-10-12T04:58:40.564Z,0.044
2022-10-12T05:03:52.388Z,0.015
2022-10-12T05:09:04.039Z,-0.024
2022-10-12T05:14:15.698Z,0.044
2022-10-12T05:19:27.469Z,0.032
2022-10-12T05:24:39.342Z,0.029
2022-10-12T05:29:51.107Z,0.028
2022-10-12T05:35:02.882Z,0.027
2022-10-12T05:40:14.748Z,0.023
2022-10-12T05:45:26.701Z,0.026
2022-10-12T05:50:38.554Z,0.043
2022-10-12T05:55:50.278Z,0.035
2022-10-12T06:01:02.068Z,0.02
2022-10-12T06:06:13.988Z,0.03
2022-10-12T06:11:25.907Z,0.028
2022-10-12T06:16:37.787Z,0.038
2022-10-12T06:21:50.029Z,0.015
2022-10-12T06:27:01.944Z,0.033
2022-10-12T06:32:13.813Z,0.044
2022-10-12T06:37:48.349Z,0.049
2022-10-12T06:42:58.729Z,0.047
2022-10-12T06:48:12.058Z,0.041
2022-10-12T06:53:33.951Z,0.037
2022-10-12T06:58:45.852Z,0.038
2022-10-12T07:04:00.646Z,0.045
2022-10-12T07:09:11.726Z,0.044
2022-10-12T07:14:23.823Z,0.043
2022-10-12T07:19:35.674Z,0.059
2022-10-12T07:24:47.667Z,0.036
2022-10-12T07:29:59.655Z,0.037
2022-10-12T07:35:11.625Z,0.044
2022-10-12T07:40:23.599Z,0.053
2022-10-12T07:45:36.103Z,0.057
2022-10-12T07:50:48.014Z,0.055
2022-10-12T07:56:00.018Z,0.058
2022-10-12T08:01:11.840Z,0.063
2022-10-12T08:06:24.142Z,0.029
2022-10-12T08:11:36.180Z,0.061
2022-10-12T08:16:48.483Z,0.074
2022-10-12T08:22:00.463Z,0.051
2022-10-12T08:27:12.643Z,0.059
2022-10-12T08:32:24.836Z,0.065
2022-10-12T08:37:37.272Z,0.041
2022-10-12T08:42:50.928Z,0.062
2022-10-12T08:48:03.034Z,0.06
2022-10-12T08:53:15.325Z,0.061
2022-10-12T08:58:27.657Z,0.058
2022-10-12T09:03:39.981Z,0.064
2022-10-12T09:08:52.264Z,0.068
2022-10-12T09:14:04.576Z,0.061
2022-10-12T09:19:16.919Z,0.066
2022-10-12T09:24:29.070Z,0.068
2022-10-12T09:29:41.432Z,0.071
2022-10-12T09:34:53.729Z,0.054
2022-10-12T09:40:06.009Z,0.054
2022-10-12T09:45:18.428Z,0.048
2022-10-12T09:50:31.019Z,0.039
2022-10-12T09:55:43.291Z,0.044
2022-10-12T10:00:55.616Z,0.059
2022-10-12T10:06:07.910Z,0.053
2022-10-12T10:11:20.086Z,0.041
2022-10-12T10:16:32.423Z,0.067
2022-10-12T10:21:44.738Z,0.062
2022-10-12T10:26:57.021Z,0.056
2022-10-12T10:32:09.536Z,0.043
2022-10-12T10:37:21.751Z,0.033
2022-10-12T10:42:34.033Z,0.045
2022-10-12T10:47:46.238Z,0.044
2022-10-12T10:52:58.805Z,0.024
2022-10-12T10:58:11.025Z,0.086
2022-10-12T11:03:23.542Z,0.049
2022-10-12T11:08:36.512Z,0.177
2022-10-12T11:13:50.959Z,0.428
2022-10-12T11:19:05.578Z,0.263
2022-10-12T11:24:19.631Z,0.245
2022-10-12T11:29:33.108Z,0.042
2022-10-12T11:45:07.865Z,-0.017
2022-10-12T11:50:20.332Z,0.047
2022-10-12T12:00:43.064Z,0.055
2022-10-12T12:11:05.539Z,-0.04
2022-10-12T12:21:27.883Z,0.007
2022-10-12T12:26:40.577Z,-0.012
2022-10-12T12:42:12.151Z,-0.04
2022-10-12T12:47:44.364Z,-0.001
2022-10-12T12:52:54.957Z,-0.011
2022-10-12T12:58:07.211Z,-0.028
2022-10-12T13:03:19.349Z,-0.04
2022-10-12T13:08:31.373Z,0.012
2022-10-12T13:13:43.608Z,0.011
2022-10-12T13:24:05.285Z,-0.012
2022-10-12T13:29:17.425Z,0.007
2022-10-12T13:34:29.731Z,-0.041
2022-10-12T13:44:52.042Z,-0.041
2022-10-12T13:50:04.278Z,-0.036
2022-10-12T14:00:26.894Z,-0.021
2022-10-12T14:05:39.346Z,0.001
2022-10-12T14:16:01.598Z,0.006
2022-10-12T14:21:13.693Z,-0.029
2022-10-12T14:26:25.899Z,0.012
2022-10-12T14:31:38.399Z,0.014
2022-10-12T14:36:50.543Z,-0.007
2022-10-12T14:42:02.703Z,-0.021
2022-10-12T14:47:14.915Z,-0.022
2022-10-12T14:52:26.925Z,-0.019
2022-10-12T15:02:49.385Z,0.013
2022-10-12T15:08:01.669Z,-0.001
2022-10-12T15:13:13.830Z,0
2022-10-12T15:18:26.093Z,0.001
2022-10-12T15:23:38.023Z,-0.012
2022-10-12T15:28:50.237Z,-0.004
2022-10-12T15:34:02.517Z,-0.047
2022-10-12T15:39:14.576Z,0.004
2022-10-12T15:44:26.732Z,-0.002
2022-10-12T15:49:38.878Z,-0.021
2022-10-12T15:54:50.802Z,-0.024
2022-10-12T16:00:02.775Z,-0.008
2022-10-12T16:05:14.765Z,-0.008
2022-10-12T16:10:26.932Z,-0.022
2022-10-12T16:15:39.140Z,-0.015
2022-10-12T16:20:53.948Z,-0.008
2022-10-12T16:26:05.318Z,-0.017
2022-10-12T16:31:17.313Z,-0.038
2022-10-12T16:36:29.488Z,0.009
2022-10-12T16:41:41.517Z,0.002
2022-10-12T16:46:53.497Z,0.009
2022-10-12T16:52:05.518Z,-0.002
2022-10-12T16:57:17.624Z,-0.007
2022-10-12T17:02:29.744Z,-0.001
2022-10-12T17:07:41.669Z,-0.018
2022-10-12T17:12:53.902Z,0.027
2022-10-12T17:18:06.037Z,-0.013
2022-10-12T17:23:18.212Z,0.026
2022-10-12T17:28:30.651Z,0.011
2022-10-12T17:33:42.960Z,0.014
2022-10-12T17:38:55.059Z,0.008
2022-10-12T17:44:07.366Z,-0.048
2022-10-12T17:49:23.614Z,0.017
2022-10-12T17:54:39.510Z,0.006
2022-10-12T17:59:51.691Z,0.006
2022-10-12T18:05:03.829Z,-0.031
2022-10-12T18:10:16.021Z,0.023
2022-10-12T18:15:28.295Z,0.011
2022-10-12T18:20:40.322Z,-0.041
2022-10-12T18:25:52.450Z,0.01
2022-10-12T18:31:04.495Z,-0.032
2022-10-12T18:36:16.574Z,0.021
2022-10-12T18:41:47.188Z,-0.02
2022-10-12T18:46:56.030Z,0.02
2022-10-12T18:52:08.092Z,0.015
2022-10-12T18:57:20.545Z,0.006
2022-10-12T19:02:32.903Z,-0.029
2022-10-12T19:07:52.504Z,0.018
2022-10-12T19:13:08.330Z,0.012
2022-10-12T19:23:44.533Z,0.011
2022-10-12T19:28:56.928Z,0.005
2022-10-12T19:34:09.111Z,0.02
2022-10-12T19:39:21.506Z,0.003
2022-10-12T19:44:39.459Z,0.011
2022-10-12T19:49:51.612Z,0.007
2022-10-12T19:55:03.825Z,0.008
2022-10-12T20:00:15.843Z,0.009
2022-10-12T20:05:28.175Z,0.004
2022-10-12T20:10:40.134Z,0.008
2022-10-12T20:15:52.136Z,0.007
2022-10-12T20:21:04.243Z,0.005
2022-10-12T20:31:39.568Z,-0.021
2022-10-12T20:36:51.801Z,0.033
2022-10-12T20:42:03.993Z,0.02
2022-10-12T20:47:16.115Z,0.005
2022-10-12T20:52:28.623Z,-0.017
2022-10-12T20:57:40.775Z,0.019
2022-10-12T21:02:53.073Z,0.015
2022-10-12T21:08:05.203Z,0.023
2022-10-12T21:13:17.109Z,0.027
2022-10-12T21:18:31.744Z,0.009
2022-10-12T21:23:48.077Z,0.012
2022-10-12T21:28:59.963Z,0.001
2022-10-12T21:34:12.171Z,0.004
2022-10-12T21:39:24.349Z,0.021
2022-10-12T21:44:36.339Z,0.002
2022-10-12T21:49:48.420Z,0.01
2022-10-12T21:55:00.570Z,0.016
2022-10-12T22:00:12.491Z,0.014
2022-10-12T22:05:24.495Z,0.006
2022-10-12T22:10:36.682Z,0.012
2022-10-12T22:15:48.657Z,0.008
2022-10-12T22:21:00.563Z,0.011
2022-10-12T22:26:12.674Z,0.02
2022-10-12T22:31:24.802Z,0.002
2022-10-12T22:36:36.956Z,-0.021
2022-10-12T22:41:48.825Z,0.031
2022-10-12T22:47:00.791Z,0.002
2022-10-12T22:52:12.878Z,0.035
2022-10-12T22:57:24.894Z,0.012
2022-10-12T23:02:36.974Z,0.011
2022-10-12T23:07:48.768Z,-0.002
2022-10-12T23:13:00.995Z,0.02
2022-10-12T23:18:13.035Z,0.029
2022-10-12T23:23:25.080Z,0.014
2022-10-12T23:28:37.100Z,-0.015
2022-10-12T23:33:49.199Z,0.019
2022-10-12T23:39:01.290Z,0.017
2022-10-12T23:44:13.477Z,0.03
2022-10-12T23:49:25.655Z,0.011
2022-10-12T23:54:37.611Z,0.013
2022-10-12T23:59:49.698Z,0.003
